Time;durP1;ratioP1;P1;durP2;ratioP2;P2;SDS_P1;SDS_P2;PMS_P1;PMS_P2;Temp;Humidity;BMP_temperature;BMP_pressure;BME280_temperature;BME280_humidity;BME280_pressure;Samples;Min_cycle;Max_cycle;Signal;HPM_P1;HPM_P2
2022/11/20 00:00:26;;;;;;;3.30;2.10;;;;;;;6.30;100.00;96266.75;5068814;28;20203;-56
2022/11/20 00:02:53;;;;;;;2.60;2.40;;;;;;;6.35;100.00;96261.09;5056660;28;20209;-56
2022/11/20 00:05:22;;;;;;;2.37;2.17;;;;;;;6.36;100.00;96260.13;5056754;28;20286;-57
2022/11/20 00:07:50;;;;;;;3.30;2.30;;;;;;;6.38;100.00;96259.03;5061044;28;20214;-57
2022/11/20 00:10:17;;;;;;;3.13;2.63;;;;;;;6.40;100.00;96257.13;5056406;28;20238;-57
2022/11/20 00:12:45;;;;;;;2.33;2.13;;;;;;;6.44;100.00;96271.69;5056266;28;20249;-57
2022/11/20 00:15:13;;;;;;;3.17;2.17;;;;;;;6.48;100.00;96264.38;5056792;28;20207;-57
2022/11/20 00:17:40;;;;;;;3.17;1.70;;;;;;;6.47;100.00;96266.19;5056555;28;20207;-56
2022/11/20 00:20:08;;;;;;;4.30;2.10;;;;;;;6.49;100.00;96261.63;5075725;28;20193;-57
2022/11/20 00:22:41;;;;;;;2.30;2.10;;;;;;;6.53;100.00;96269.25;5078158;28;20191;-57
2022/11/20 00:25:09;;;;;;;2.10;2.00;;;;;;;6.51;100.00;96269.38;5079143;28;20233;-57
2022/11/20 00:27:36;;;;;;;3.37;2.30;;;;;;;6.52;100.00;96264.97;5058688;28;20222;-57
2022/11/20 00:30:04;;;;;;;2.37;2.13;;;;;;;6.57;100.00;96268.88;5056720;28;20671;-56
2022/11/20 00:32:32;;;;;;;3.93;2.33;;;;;;;6.54;100.00;96269.13;5056344;28;20549;-58
2022/11/20 00:34:59;;;;;;;2.47;2.20;;;;;;;6.55;100.00;96272.59;5056611;28;20628;-57
2022/11/20 00:37:27;;;;;;;2.60;2.40;;;;;;;6.62;100.00;96265.88;5056190;28;20294;-57
2022/11/20 00:39:54;;;;;;;2.40;2.23;;;;;;;6.65;100.00;96274.31;5056364;28;20684;-57
2022/11/20 00:42:23;;;;;;;2.60;2.13;;;;;;;6.67;100.00;96277.63;5068077;28;20206;-56
2022/11/20 00:44:51;;;;;;;3.47;2.20;;;;;;;6.66;100.00;96278.59;5056304;28;20261;-57
2022/11/20 00:47:18;;;;;;;3.23;2.20;;;;;;;6.71;100.00;96276.44;5072889;28;20682;-57
2022/11/20 00:49:46;;;;;;;2.67;2.30;;;;;;;6.72;100.00;96285.16;5075547;28;20230;-57
2022/11/20 00:52:13;;;;;;;3.07;2.27;;;;;;;6.78;100.00;96276.75;5076388;28;20201;-57
2022/11/20 00:54:40;;;;;;;2.83;2.30;;;;;;;6.76;100.00;96274.25;5075649;28;20686;-57
2022/11/20 00:57:08;;;;;;;3.37;1.90;;;;;;;6.78;100.00;96280.22;5076263;28;20206;-57
2022/11/20 00:59:37;;;;;;;2.43;2.23;;;;;;;6.83;100.00;96285.94;5064517;28;20202;-57
2022/11/20 01:02:04;;;;;;;2.20;2.10;;;;;;;6.86;100.00;96285.66;5068387;28;20207;-57
2022/11/20 01:04:31;;;;;;;6.23;2.77;;;;;;;6.81;100.00;96287.84;5055871;28;20325;-57
2022/11/20 01:07:00;;;;;;;2.43;2.23;;;;;;;6.84;100.00;96287.56;5055718;28;20246;-57
2022/11/20 01:09:27;;;;;;;2.63;2.47;;;;;;;6.84;100.00;96292.81;5068364;28;20206;-57
2022/11/20 01:11:54;;;;;;;2.37;2.13;;;;;;;6.83;100.00;96290.34;5056298;28;20265;-58
2022/11/20 01:14:21;;;;;;;3.60;2.50;;;;;;;6.84;100.00;96290.19;5056290;28;20237;-57
2022/11/20 01:16:50;;;;;;;3.50;2.47;;;;;;;6.85;100.00;96293.66;5056273;28;20210;-57
2022/11/20 01:19:18;;;;;;;2.20;2.00;;;;;;;6.83;100.00;96295.59;5056527;28;20203;-56
2022/11/20 01:21:46;;;;;;;2.40;2.20;;;;;;;6.86;100.00;96290.91;5055871;28;20203;-56
2022/11/20 01:24:17;;;;;;;4.00;1.90;;;;;;;6.78;100.00;96290.72;5055957;28;20241;-57
2022/11/20 01:26:44;;;;;;;2.30;2.17;;;;;;;6.77;100.00;96293.47;5055927;28;20249;-56
2022/11/20 01:29:15;;;;;;;2.70;1.80;;;;;;;6.78;100.00;96301.22;5054833;28;20238;-57
2022/11/20 01:31:42;;;;;;;2.33;2.10;;;;;;;6.76;100.00;96297.06;5055510;28;20277;-57
2022/11/20 01:34:11;;;;;;;2.47;2.27;;;;;;;6.77;100.00;96307.44;5056244;28;20237;-57
2022/11/20 01:36:39;;;;;;;3.03;2.63;;;;;;;6.75;100.00;96304.13;5059758;28;20291;-57
2022/11/20 01:39:08;;;;;;;2.63;2.43;;;;;;;6.77;100.00;96303.97;5063935;28;20221;-57
2022/11/20 01:44:22;;;;;;;3.23;2.90;;;;;;;6.69;100.00;96298.56;5068814;28;20684;-57
2022/11/20 01:46:54;;;;;;;3.10;2.83;;;;;;;6.70;100.00;96301.03;5061153;28;20233;-57
2022/11/20 01:49:25;;;;;;;3.20;2.90;;;;;;;6.71;100.00;96307.97;5060602;28;20230;-57
2022/11/20 01:51:53;;;;;;;3.10;2.90;;;;;;;6.64;100.00;96317.31;5060710;28;20247;-57
2022/11/20 01:54:23;;;;;;;3.47;2.87;;;;;;;6.59;100.00;96316.03;5054707;28;20610;-58
2022/11/20 01:56:53;;;;;;;3.17;2.97;;;;;;;6.62;100.00;96321.88;5055373;28;20245;-57
2022/11/20 01:59:20;;;;;;;4.53;3.13;;;;;;;6.65;100.00;96320.78;5058070;28;20294;-57
2022/11/20 02:01:47;;;;;;;3.17;2.87;;;;;;;6.60;100.00;96322.94;5059437;28;20242;-56
2022/11/20 02:04:14;;;;;;;5.47;2.60;;;;;;;6.62;100.00;96324.50;5055025;28;20242;-57
2022/11/20 02:06:43;;;;;;;3.00;2.80;;;;;;;6.64;100.00;96321.72;5054897;28;20207;-57
2022/11/20 02:09:12;;;;;;;3.37;2.80;;;;;;;6.64;100.00;96319.94;5053700;28;20250;-56
2022/11/20 02:11:40;;;;;;;3.00;2.80;;;;;;;6.65;100.00;96324.25;5055067;28;20227;-57
2022/11/20 02:14:08;;;;;;;3.80;2.50;;;;;;;6.65;100.00;96319.00;5064514;28;20260;-57
2022/11/20 02:16:37;;;;;;;3.53;2.40;;;;;;;6.63;100.00;96320.88;5058049;28;20231;-57
2022/11/20 02:19:08;;;;;;;2.33;2.13;;;;;;;6.66;100.00;96319.81;5054825;28;20267;-57
2022/11/20 02:21:38;;;;;;;2.30;2.10;;;;;;;6.60;100.00;96318.53;5073493;28;20245;-57
2022/11/20 02:24:09;;;;;;;2.43;2.23;;;;;;;6.64;100.00;96321.72;5075106;28;20367;-57
2022/11/20 02:26:40;;;;;;;2.17;1.97;;;;;;;6.60;100.00;96325.56;5069495;28;20235;-57
2022/11/20 02:29:08;;;;;;;3.27;1.87;;;;;;;6.62;100.00;96321.88;5054505;28;20273;-57
2022/11/20 02:31:37;;;;;;;2.13;1.73;;;;;;;6.63;100.00;96323.50;5074547;28;20254;-57
2022/11/20 02:34:04;;;;;;;3.87;1.80;;;;;;;6.65;100.00;96318.16;5074735;28;20210;-57
2022/11/20 02:36:33;;;;;;;1.67;1.57;;;;;;;6.65;100.00;96326.88;5065742;28;20310;-57
2022/11/20 02:39:00;;;;;;;2.40;2.13;;;;;;;6.65;100.00;96319.00;5055264;28;20203;-55
2022/11/20 02:41:33;;;;;;;3.43;1.97;;;;;;;6.68;100.00;96318.72;5063586;28;20259;-57
2022/11/20 02:44:00;;;;;;;2.30;2.10;;;;;;;6.66;100.00;96317.19;5063596;28;20298;-56
2022/11/20 02:46:27;;;;;;;3.53;2.50;;;;;;;6.68;100.00;96316.09;5076063;28;20256;-57
2022/11/20 02:48:54;;;;;;;2.57;2.30;;;;;;;6.69;100.00;96314.31;5072130;28;20263;-57
2022/11/20 02:51:21;;;;;;;2.30;2.10;;;;;;;6.67;100.00;96306.53;5093266;28;20233;-57
2022/11/20 02:53:48;;;;;;;3.13;2.53;;;;;;;6.72;100.00;96303.53;5096347;28;20253;-57
2022/11/20 02:56:15;;;;;;;3.53;2.27;;;;;;;6.71;100.00;96301.88;5081602;28;20270;-57
2022/11/20 02:58:43;;;;;;;2.30;2.10;;;;;;;6.75;100.00;96313.78;5069909;28;20242;-57
2022/11/20 03:01:10;;;;;;;2.13;1.90;;;;;;;6.72;100.00;96304.38;5067458;28;20267;-57
2022/11/20 03:03:37;;;;;;;3.30;2.60;;;;;;;6.84;100.00;96305.97;5058990;28;20234;-59
2022/11/20 03:06:04;;;;;;;2.47;2.23;;;;;;;6.79;100.00;96302.91;5070327;28;20668;-58
2022/11/20 03:08:32;;;;;;;2.30;2.10;;;;;;;6.71;100.00;96300.06;5059594;28;20269;-57
2022/11/20 03:11:03;;;;;;;2.80;2.60;;;;;;;6.75;100.00;96304.13;5058407;28;20286;-57
2022/11/20 03:13:30;;;;;;;3.63;2.27;;;;;;;6.74;100.00;96302.44;5058071;28;20211;-57
2022/11/20 03:15:59;;;;;;;2.20;2.00;;;;;;;6.76;100.00;96300.53;5060707;28;20195;-57
2022/11/20 03:18:28;;;;;;;3.37;2.20;;;;;;;6.71;100.00;96297.44;5060406;28;20209;-56
2022/11/20 03:20:58;;;;;;;2.10;1.90;;;;;;;6.79;100.00;96299.44;5060149;28;20290;-56
2022/11/20 03:23:25;;;;;;;3.43;2.03;;;;;;;6.76;100.00;96290.03;5058615;28;20583;-56
2022/11/20 03:25:52;;;;;;;3.77;2.20;;;;;;;6.78;100.00;96300.41;5057602;28;20235;-56
2022/11/20 03:28:18;;;;;;;2.20;2.10;;;;;;;6.77;100.00;96299.56;5057335;28;20636;-56
2022/11/20 03:30:46;;;;;;;2.60;2.10;;;;;;;6.81;100.00;96302.75;5057491;28;20318;-57
2022/11/20 03:33:16;;;;;;;2.57;2.10;;;;;;;6.80;100.00;96304.56;5064639;28;20238;-57
2022/11/20 03:35:44;;;;;;;2.10;2.00;;;;;;;6.78;100.00;96305.66;5063883;28;20577;-57
2022/11/20 03:38:11;;;;;;;2.10;2.00;;;;;;;6.74;100.00;96305.06;5057295;28;20301;-56
2022/11/20 03:40:38;;;;;;;2.70;2.30;;;;;;;6.73;100.00;96311.28;5058186;28;20230;-57
2022/11/20 03:43:04;;;;;;;3.03;2.13;;;;;;;6.67;100.00;96314.44;5068302;28;20293;-57
2022/11/20 03:45:32;;;;;;;2.30;2.03;;;;;;;6.71;100.00;96318.47;5059400;28;20300;-57
2022/11/20 03:47:59;;;;;;;2.43;2.23;;;;;;;6.74;100.00;96320.84;5077566;28;20638;-57
2022/11/20 03:50:29;;;;;;;2.10;2.00;;;;;;;6.73;100.00;96324.41;5074723;28;20666;-57
2022/11/20 03:52:58;;;;;;;3.17;2.20;;;;;;;6.68;100.00;96308.22;5058322;28;20212;-57
2022/11/20 03:55:24;;;;;;;2.13;1.90;;;;;;;6.68;100.00;96323.97;5057067;28;20356;-57
2022/11/20 03:57:51;;;;;;;2.13;1.93;;;;;;;6.61;100.00;96317.56;5056887;28;20569;-54
2022/11/20 04:00:18;;;;;;;2.07;1.93;;;;;;;6.67;100.00;96318.84;5057195;28;20203;-57
2022/11/20 04:02:45;;;;;;;2.43;2.23;;;;;;;6.73;100.00;96321.78;5057387;28;20544;-57
2022/11/20 04:05:12;;;;;;;2.27;2.17;;;;;;;6.69;100.00;96330.91;5060876;28;20253;-57
2022/11/20 04:07:40;;;;;;;2.50;2.30;;;;;;;6.70;100.00;96322.06;5066013;28;20267;-57
2022/11/20 04:10:08;;;;;;;2.33;2.07;;;;;;;6.69;100.00;96325.66;5056811;28;20242;-57
2022/11/20 04:12:35;;;;;;;2.23;2.03;;;;;;;6.66;100.00;96325.88;5055528;28;20690;-57
2022/11/20 04:15:02;;;;;;;2.37;2.17;;;;;;;6.64;100.00;96335.69;5056872;28;20268;-57
2022/11/20 04:17:28;;;;;;;2.23;2.00;;;;;;;6.61;100.00;96330.72;5067969;28;20207;-57
2022/11/20 04:19:55;;;;;;;2.40;2.20;;;;;;;6.59;100.00;96324.72;5058759;28;20233;-57
2022/11/20 04:22:22;;;;;;;2.27;2.10;;;;;;;6.61;100.00;96317.56;5056613;28;20265;-57
2022/11/20 04:24:50;;;;;;;2.10;1.90;;;;;;;6.63;100.00;96323.50;5056579;28;20539;-57
2022/11/20 04:27:17;;;;;;;2.67;1.90;;;;;;;6.61;100.00;96328.09;5056987;28;20203;-57
2022/11/20 04:29:44;;;;;;;2.70;2.50;;;;;;;6.54;100.00;96326.06;5056489;28;20253;-57
2022/11/20 04:32:12;;;;;;;2.47;2.27;;;;;;;6.50;100.00;96325.50;5056177;28;20326;-57
2022/11/20 04:34:39;;;;;;;2.60;2.00;;;;;;;6.55;100.00;96323.34;5056293;28;20242;-56
2022/11/20 04:37:07;;;;;;;2.20;1.97;;;;;;;6.57;100.00;96325.81;5056411;28;20207;-57
2022/11/20 04:39:35;;;;;;;2.40;2.10;;;;;;;6.56;100.00;96319.72;5071648;28;20206;-57
2022/11/20 04:44:48;;;;;;;3.63;2.10;;;;;;;6.58;100.00;96317.81;5056353;28;20210;-56
2022/11/20 04:47:14;;;;;;;1.70;1.60;;;;;;;6.56;100.00;96324.97;5072959;28;20202;-57
2022/11/20 04:49:41;;;;;;;3.67;1.90;;;;;;;6.59;100.00;96327.34;5071019;28;20211;-56
2022/11/20 04:52:09;;;;;;;1.77;1.67;;;;;;;6.58;100.00;96325.72;5060375;28;20273;-57
2022/11/20 04:54:36;;;;;;;2.00;1.73;;;;;;;6.57;100.00;96316.16;5056101;28;20249;-57
2022/11/20 04:57:05;;;;;;;2.37;2.00;;;;;;;6.58;100.00;96324.88;5069706;28;20704;-57
2022/11/20 04:59:31;;;;;;;2.53;1.90;;;;;;;6.58;100.00;96312.56;5066317;28;20300;-57
2022/11/20 05:01:58;;;;;;;2.17;1.67;;;;;;;6.58;100.00;96320.47;5069337;28;20226;-57
2022/11/20 05:04:25;;;;;;;2.37;2.07;;;;;;;6.56;99.34;96319.72;5055125;28;20327;-57
2022/11/20 05:06:53;;;;;;;2.03;1.80;;;;;;;6.57;99.34;96317.94;5054936;28;20258;-57
2022/11/20 05:09:19;;;;;;;2.30;2.10;;;;;;;6.56;98.59;96311.84;5055449;28;20696;-57
2022/11/20 05:11:46;;;;;;;3.33;2.23;;;;;;;6.54;98.52;96308.53;5060332;28;20230;-57
2022/11/20 05:14:14;;;;;;;2.00;1.77;;;;;;;6.54;98.11;96321.66;5063991;28;20203;-57
2022/11/20 05:16:43;;;;;;;2.63;1.80;;;;;;;6.52;97.71;96314.88;5061214;28;20238;-57
2022/11/20 05:19:10;;;;;;;2.43;2.00;;;;;;;6.47;98.20;96310.81;5063756;28;20226;-58
2022/11/20 05:21:37;;;;;;;2.00;1.90;;;;;;;6.45;99.68;96311.91;5071390;28;20206;-56
2022/11/20 05:24:04;;;;;;;2.23;2.00;;;;;;;6.41;99.56;96321.00;5077119;28;20194;-57
2022/11/20 05:26:31;;;;;;;1.90;1.80;;;;;;;6.38;99.70;96323.84;5084425;28;20372;-57
2022/11/20 05:28:57;;;;;;;2.23;1.90;;;;;;;6.35;99.96;96326.75;5072427;28;20198;-57
2022/11/20 05:31:26;;;;;;;3.60;2.00;;;;;;;6.32;99.96;96327.00;5069968;28;20262;-57
2022/11/20 05:33:52;;;;;;;2.53;2.03;;;;;;;6.30;100.00;96318.41;5056198;28;20208;-57
2022/11/20 05:36:22;;;;;;;2.20;2.10;;;;;;;6.34;100.00;96330.34;5056240;28;20253;-57
2022/11/20 05:38:49;;;;;;;3.50;2.30;;;;;;;6.26;100.00;96330.13;5055908;28;20269;-57
2022/11/20 05:41:18;;;;;;;2.17;2.07;;;;;;;6.27;100.00;96329.19;5061493;28;20273;-56
2022/11/20 05:43:46;;;;;;;3.00;2.20;;;;;;;6.36;99.90;96325.78;5062040;28;20242;-58
2022/11/20 05:46:16;;;;;;;2.23;2.03;;;;;;;6.42;100.00;96330.53;5063788;28;20276;-57
2022/11/20 05:48:46;;;;;;;2.17;2.07;;;;;;;6.44;99.70;96333.88;5075161;28;20210;-57
2022/11/20 05:51:15;;;;;;;2.37;2.17;;;;;;;6.38;100.00;96331.75;5058703;28;20616;-57
2022/11/20 05:53:42;;;;;;;2.00;1.90;;;;;;;6.34;100.00;96332.97;5055001;28;20246;-57
2022/11/20 05:56:10;;;;;;;2.67;2.10;;;;;;;6.40;100.00;96345.59;5057210;28;20234;-58
2022/11/20 05:58:38;;;;;;;2.10;2.00;;;;;;;6.47;99.33;96344.97;5054466;28;20542;-57
2022/11/20 06:01:06;;;;;;;2.90;2.63;;;;;;;6.52;98.14;96341.16;5054228;28;20305;-57
2022/11/20 06:03:33;;;;;;;2.23;2.00;;;;;;;6.46;99.00;96348.56;5054436;28;20264;-56
2022/11/20 06:06:02;;;;;;;4.13;2.27;;;;;;;6.46;100.00;96345.09;5054271;28;20628;-56
2022/11/20 06:08:30;;;;;;;2.33;2.10;;;;;;;6.44;100.00;96352.28;5054966;28;20639;-57
2022/11/20 06:10:57;;;;;;;2.57;2.03;;;;;;;6.44;100.00;96352.28;5055443;28;20644;-56
2022/11/20 06:13:24;;;;;;;2.30;2.10;;;;;;;6.50;100.00;96357.00;5055636;28;20242;-57
2022/11/20 06:15:53;;;;;;;2.20;2.10;;;;;;;6.53;100.00;96359.38;5056464;28;20290;-57
2022/11/20 06:18:22;;;;;;;2.67;2.47;;;;;;;6.54;100.00;96361.06;5060627;28;20245;-56
2022/11/20 06:20:49;;;;;;;2.03;1.93;;;;;;;6.54;100.00;96363.69;5061331;28;20210;-57
2022/11/20 06:23:20;;;;;;;2.33;2.13;;;;;;;6.52;100.00;96360.34;5074077;28;20203;-57
2022/11/20 06:25:46;;;;;;;3.53;2.10;;;;;;;6.55;100.00;96356.66;5062318;28;20667;-57
2022/11/20 06:28:13;;;;;;;2.37;2.17;;;;;;;6.53;100.00;96366.44;5066601;28;20210;-57
2022/11/20 06:30:45;;;;;;;2.23;2.13;;;;;;;6.50;100.00;96351.75;5068095;28;20249;-57
2022/11/20 06:33:12;;;;;;;2.53;2.33;;;;;;;6.52;100.00;96352.47;5063910;28;20304;-57
2022/11/20 06:35:39;;;;;;;2.67;2.47;;;;;;;6.55;100.00;96354.88;5060799;28;20218;-57
2022/11/20 06:38:06;;;;;;;2.50;2.30;;;;;;;6.57;100.00;96357.34;5059327;28;20203;-56
2022/11/20 06:40:34;;;;;;;2.77;2.57;;;;;;;6.57;100.00;96352.94;5064994;28;20198;-58
2022/11/20 06:43:01;;;;;;;4.03;2.43;;;;;;;6.61;100.00;96349.09;5078935;28;20206;-57
2022/11/20 06:45:28;;;;;;;2.50;2.30;;;;;;;6.65;100.00;96340.00;5066533;28;20238;-57
2022/11/20 06:47:58;;;;;;;3.23;2.43;;;;;;;6.70;100.00;96343.06;5079534;28;20236;-57
2022/11/20 06:50:25;;;;;;;2.53;2.33;;;;;;;6.72;100.00;96349.06;5076678;28;20218;-57
2022/11/20 06:52:52;;;;;;;2.37;2.23;;;;;;;6.73;100.00;96345.44;5059447;28;20238;-57
2022/11/20 06:55:18;;;;;;;3.10;2.10;;;;;;;6.73;100.00;96353.31;5058926;28;20678;-56
2022/11/20 06:57:47;;;;;;;3.10;2.13;;;;;;;6.74;100.00;96360.25;5064549;28;20241;-57
2022/11/20 07:00:14;;;;;;;5.10;2.43;;;;;;;6.74;100.00;96364.66;5062690;28;20251;-56
2022/11/20 07:02:41;;;;;;;3.30;2.10;;;;;;;6.77;100.00;96362.63;5058576;28;20211;-57
2022/11/20 07:05:10;;;;;;;2.57;2.20;;;;;;;6.73;100.00;96369.09;5058636;28;20244;-57
2022/11/20 07:07:37;;;;;;;2.57;2.30;;;;;;;6.73;100.00;96369.09;5059193;28;20207;-57
2022/11/20 07:10:05;;;;;;;2.50;2.30;;;;;;;6.78;100.00;96373.97;5059676;28;20289;-57
2022/11/20 07:12:31;;;;;;;2.10;1.93;;;;;;;6.74;100.00;96376.03;5078985;28;20218;-57
2022/11/20 07:15:00;;;;;;;2.40;2.20;;;;;;;6.76;100.00;96379.38;5075015;28;20202;-57
2022/11/20 07:17:27;;;;;;;2.50;2.30;;;;;;;6.76;100.00;96368.88;5072358;28;20237;-58
2022/11/20 07:19:53;;;;;;;2.60;2.40;;;;;;;6.74;100.00;96383.91;5075513;28;20202;-57
2022/11/20 07:22:21;;;;;;;2.20;2.10;;;;;;;6.74;100.00;96383.06;5084790;28;20226;-57
2022/11/20 07:24:49;;;;;;;2.10;2.00;;;;;;;6.72;100.00;96392.88;5091052;28;20203;-57
2022/11/20 07:27:16;;;;;;;2.00;1.90;;;;;;;6.71;100.00;96391.22;5072512;28;20242;-58
2022/11/20 07:29:43;;;;;;;2.10;1.90;;;;;;;6.76;100.00;96391.69;5076740;28;20211;-57
2022/11/20 07:32:11;;;;;;;2.87;2.67;;;;;;;6.79;100.00;96394.06;5066254;28;20330;-57
2022/11/20 07:34:38;;;;;;;2.80;2.30;;;;;;;6.79;100.00;96396.69;5063880;28;20261;-56
2022/11/20 07:37:09;;;;;;;2.53;2.10;;;;;;;6.86;100.00;96401.31;5059722;28;20214;-57
2022/11/20 07:39:37;;;;;;;2.77;2.20;;;;;;;6.94;100.00;96401.50;5060116;28;20531;-57
2022/11/20 07:42:04;;;;;;;1.97;1.87;;;;;;;7.04;98.45;96398.94;5072901;28;20221;-57
2022/11/20 07:44:31;;;;;;;2.47;2.10;;;;;;;7.11;97.27;96400.09;5058489;28;20242;-57
2022/11/20 07:46:57;;;;;;;2.00;1.80;;;;;;;7.15;97.01;96406.78;5066093;28;20198;-56
2022/11/20 07:49:25;;;;;;;2.63;2.00;;;;;;;7.22;100.00;96399.22;5077494;28;20253;-59
2022/11/20 07:51:54;;;;;;;2.10;1.93;;;;;;;7.22;96.60;96407.09;5093799;28;20222;-58
2022/11/20 07:54:21;;;;;;;1.90;1.80;;;;;;;7.27;97.48;96400.47;5062384;28;20224;-57
2022/11/20 07:56:47;;;;;;;2.10;1.90;;;;;;;7.31;95.66;96401.06;5056933;28;20221;-56
2022/11/20 07:59:15;;;;;;;2.43;2.00;;;;;;;7.36;95.86;96404.16;5056529;28;20276;-57
2022/11/20 08:01:42;;;;;;;2.50;1.80;;;;;;;7.40;95.18;96405.56;5056636;28;20260;-55
2022/11/20 08:04:09;;;;;;;1.87;1.77;;;;;;;7.38;95.57;96402.22;5056535;28;20246;-56
2022/11/20 08:06:37;;;;;;;2.30;2.10;;;;;;;7.43;94.10;96410.56;5056583;28;20207;-56
2022/11/20 08:09:04;;;;;;;2.10;2.00;;;;;;;7.45;95.30;96408.63;5057277;28;20235;-57
2022/11/20 08:14:15;;;;;;;1.80;1.70;;;;;;;7.54;95.16;96412.28;5070672;28;20288;-57
2022/11/20 08:16:43;;;;;;;2.67;2.47;;;;;;;7.64;92.47;96414.00;5057402;28;20222;-57
2022/11/20 08:19:09;;;;;;;1.70;1.60;;;;;;;7.61;94.36;96416.91;5057235;28;20245;-57
2022/11/20 08:21:38;;;;;;;1.73;1.63;;;;;;;7.63;94.77;96412.31;5057530;28;20257;-57
2022/11/20 08:24:06;;;;;;;1.70;1.60;;;;;;;7.68;93.44;96410.16;5057375;28;20195;-57
2022/11/20 08:26:35;;;;;;;1.87;1.60;;;;;;;7.67;92.23;96403.22;5057455;28;20242;-57
2022/11/20 08:29:04;;;;;;;1.83;1.63;;;;;;;7.68;91.28;96399.63;5064655;28;20229;-57
2022/11/20 08:31:31;;;;;;;1.70;1.60;;;;;;;7.58;92.82;96403.97;5066869;28;20198;-56
2022/11/20 08:33:59;;;;;;;1.80;1.70;;;;;;;7.63;91.83;96404.44;5066645;28;20246;-56
2022/11/20 08:36:26;;;;;;;1.90;1.63;;;;;;;7.64;90.99;96398.22;5057118;28;20249;-56
2022/11/20 08:38:55;;;;;;;2.13;1.83;;;;;;;7.70;90.49;96402.94;5055468;28;20253;-56
2022/11/20 08:41:26;;;;;;;1.80;1.40;;;;;;;7.77;91.00;96400.63;5063169;28;20230;-58
2022/11/20 08:43:55;;;;;;;1.57;1.47;;;;;;;7.81;91.01;96410.75;5076633;28;20259;-57
2022/11/20 08:46:22;;;;;;;1.93;1.83;;;;;;;7.90;90.74;96411.78;5060965;28;20628;-57
2022/11/20 08:48:49;;;;;;;1.60;1.50;;;;;;;7.96;89.28;96414.72;5056265;28;20214;-58
2022/11/20 08:51:16;;;;;;;2.27;1.50;;;;;;;7.99;87.94;96416.25;5057059;28;20207;-57
2022/11/20 08:53:43;;;;;;;2.00;1.60;;;;;;;8.02;90.61;96408.91;5055915;28;20270;-57
2022/11/20 08:56:11;;;;;;;2.10;1.47;;;;;;;8.12;90.55;96413.34;5056137;28;20207;-55
2022/11/20 08:58:39;;;;;;;1.97;1.33;;;;;;;8.16;89.00;96404.22;5055652;28;20231;-58
2022/11/20 09:01:06;;;;;;;1.20;1.20;;;;;;;8.21;89.46;96413.41;5058158;28;20249;-57
2022/11/20 09:03:35;;;;;;;1.50;1.40;;;;;;;8.34;88.28;96418.47;5056510;28;20226;-57
2022/11/20 09:06:04;;;;;;;1.30;1.20;;;;;;;8.55;85.54;96416.56;5056495;28;20296;-57
2022/11/20 09:08:32;;;;;;;1.30;0.93;;;;;;;8.61;84.18;96412.56;5056127;28;20235;-57
2022/11/20 09:10:59;;;;;;;1.30;1.20;;;;;;;8.87;82.48;96411.88;5055788;28;20652;-57
2022/11/20 09:13:29;;;;;;;1.10;1.10;;;;;;;9.04;80.99;96417.44;5062523;28;20276;-56
2022/11/20 09:15:57;;;;;;;1.63;1.30;;;;;;;9.23;80.63;96404.25;5057052;28;20599;-57
2022/11/20 09:18:24;;;;;;;1.47;1.00;;;;;;;9.30;79.00;96410.63;5055506;28;20211;-64
2022/11/20 09:20:51;;;;;;;1.43;1.20;;;;;;;9.42;80.34;96405.03;5055614;28;20234;-57
2022/11/20 09:23:18;;;;;;;0.93;0.93;;;;;;;9.60;78.25;96410.41;5055768;28;20203;-56
2022/11/20 09:25:45;;;;;;;1.50;1.40;;;;;;;10.06;77.33;96408.75;5064404;28;20286;-54
2022/11/20 09:28:12;;;;;;;1.00;1.00;;;;;;;10.42;76.08;96410.53;5055103;28;20632;-54
2022/11/20 09:30:42;;;;;;;1.23;1.23;;;;;;;10.51;75.27;96422.06;5074632;28;20211;-56
2022/11/20 09:33:09;;;;;;;1.40;1.30;;;;;;;10.15;72.01;96415.84;5059764;28;20231;-62
2022/11/20 09:35:36;;;;;;;1.43;1.33;;;;;;;9.92;73.15;96410.88;5054901;28;20679;-57
2022/11/20 09:38:07;;;;;;;1.70;1.30;;;;;;;9.68;75.01;96412.34;5055069;28;20301;-56
2022/11/20 09:40:36;;;;;;;1.53;1.40;;;;;;;9.48;75.59;96416.84;5055047;28;20211;-55
2022/11/20 09:43:05;;;;;;;1.17;1.13;;;;;;;9.37;77.47;96419.63;5060960;28;20230;-57
2022/11/20 09:45:43;;;;;;;1.10;1.00;;;;;;;9.21;78.85;96419.38;5061680;28;20595;-56
2022/11/20 09:48:23;;;;;;;1.60;1.50;;;;;;;9.13;78.51;96424.53;5072263;28;20206;-54
2022/11/20 09:50:56;;;;;;;1.33;1.10;;;;;;;9.03;78.84;96421.06;5064367;28;20205;-54
2022/11/20 09:53:29;;;;;;;1.87;1.50;;;;;;;8.97;77.31;96428.53;5061597;28;20624;-56
2022/11/20 09:55:56;;;;;;;1.70;1.60;;;;;;;8.94;78.04;96425.34;5065550;28;20202;-53
2022/11/20 09:58:31;;;;;;;1.57;1.47;;;;;;;8.87;79.22;96417.16;5059124;28;20289;-54
2022/11/20 10:01:04;;;;;;;2.00;1.70;;;;;;;8.86;80.42;96420.75;5061509;28;20284;-55
2022/11/20 10:03:38;;;;;;;1.27;1.17;;;;;;;8.92;79.46;96420.22;5069731;28;20643;-56
2022/11/20 10:06:08;;;;;;;1.60;1.40;;;;;;;9.08;79.82;96419.66;5058767;28;20281;-55
2022/11/20 10:08:40;;;;;;;2.33;1.50;;;;;;;9.07;77.56;96417.19;5058438;28;20231;-56
2022/11/20 10:11:12;;;;;;;1.63;1.53;;;;;;;9.06;76.69;96423.41;5058563;28;20271;-53
2022/11/20 10:13:46;;;;;;;1.57;1.47;;;;;;;9.06;78.38;96421.63;5058422;28;20303;-56
2022/11/20 10:16:23;;;;;;;1.43;1.17;;;;;;;9.09;79.45;96413.41;5065756;28;20267;-56
2022/11/20 10:19:03;;;;;;;1.70;1.47;;;;;;;9.23;78.56;96413.00;5079112;28;20237;-58
2022/11/20 10:21:39;;;;;;;1.57;1.47;;;;;;;9.67;77.23;96415.97;5090202;28;20214;-52
2022/11/20 10:24:33;;;;;;;2.40;2.30;;;;;;;9.90;77.11;96412.84;5074444;28;20201;-57
2022/11/20 10:27:07;;;;;;;2.20;2.00;;;;;;;10.22;76.03;96412.47;5061231;28;20285;-57
2022/11/20 10:29:35;;;;;;;1.83;1.40;;;;;;;10.25;72.91;96413.97;5079733;28;20234;-56
2022/11/20 10:32:08;;;;;;;1.77;1.30;;;;;;;10.28;73.96;96426.88;5069138;28;20258;-55
2022/11/20 10:34:39;;;;;;;1.57;1.47;;;;;;;10.24;75.42;96414.94;5058822;28;20298;-56
2022/11/20 10:37:11;;;;;;;1.90;1.80;;;;;;;10.13;73.78;96404.56;5057961;28;20242;-56
2022/11/20 10:39:42;;;;;;;3.07;1.43;;;;;;;10.20;73.81;96408.31;5063302;28;20287;-54
2022/11/20 10:42:12;;;;;;;1.60;1.50;;;;;;;10.14;74.68;96408.84;5065025;28;20539;-54
2022/11/20 10:47:28;;;;;;;2.13;1.60;;;;;;;9.93;77.10;96401.97;5079323;28;20646;-56
2022/11/20 10:49:56;;;;;;;1.80;1.70;;;;;;;9.89;75.46;96400.59;5073907;28;20297;-56
2022/11/20 10:52:29;;;;;;;2.50;1.17;;;;;;;9.74;76.65;96402.03;5069453;28;20723;-54
2022/11/20 10:55:03;;;;;;;1.87;1.40;;;;;;;9.83;80.51;96395.91;5077840;28;20210;-54
2022/11/20 10:57:43;;;;;;;1.50;1.40;;;;;;;9.85;77.98;96388.66;5077713;28;20245;-56
2022/11/20 11:00:12;;;;;;;2.30;1.30;;;;;;;9.89;76.00;96390.03;5077499;28;20582;-57
2022/11/20 11:02:45;;;;;;;1.83;1.47;;;;;;;9.86;75.24;96385.06;5060598;28;20230;-57
2022/11/20 11:05:19;;;;;;;1.27;1.20;;;;;;;10.05;76.11;96388.59;5057697;28;20261;-57
2022/11/20 11:07:46;;;;;;;1.47;1.37;;;;;;;10.10;73.10;96381.03;5057581;28;20341;-55
2022/11/20 11:10:18;;;;;;;1.43;1.33;;;;;;;10.02;74.19;96379.97;5057518;28;20336;-56
2022/11/20 11:12:46;;;;;;;1.20;1.10;;;;;;;9.99;73.23;96368.84;5057143;28;20207;-55
2022/11/20 11:15:16;;;;;;;1.40;1.30;;;;;;;9.92;74.17;96373.06;5057930;28;20207;-57
2022/11/20 11:17:50;;;;;;;1.47;1.33;;;;;;;9.91;73.74;96372.25;5057920;28;20218;-57
2022/11/20 11:20:18;;;;;;;2.50;1.40;;;;;;;9.96;72.81;96367.34;5057542;28;20206;-56
2022/11/20 11:22:46;;;;;;;1.67;1.30;;;;;;;9.89;71.71;96363.63;5057016;28;20675;-57
2022/11/20 11:25:25;;;;;;;1.33;1.10;;;;;;;9.91;70.61;96361.69;5057092;28;20542;-57
2022/11/20 11:27:52;;;;;;;0.90;0.90;;;;;;;10.05;71.49;96356.91;5065595;28;20296;-57
2022/11/20 11:30:20;;;;;;;1.67;1.10;;;;;;;10.07;71.15;96360.19;5076563;28;20234;-57
2022/11/20 11:32:49;;;;;;;1.70;1.60;;;;;;;10.04;70.74;96349.94;5066602;28;20734;-57
2022/11/20 11:35:24;;;;;;;1.00;1.00;;;;;;;10.12;71.70;96352.69;5056784;28;20651;-57
2022/11/20 11:37:53;;;;;;;1.07;0.90;;;;;;;10.14;68.94;96356.88;5057203;28;20203;-57
2022/11/20 11:40:22;;;;;;;1.43;1.10;;;;;;;9.89;70.08;96347.78;5058796;28;20211;-58
2022/11/20 11:42:53;;;;;;;1.50;0.93;;;;;;;9.98;70.40;96346.91;5065550;28;20290;-58
2022/11/20 11:45:19;;;;;;;1.33;1.00;;;;;;;9.87;69.98;96338.34;5068807;28;20203;-56
2022/11/20 11:47:47;;;;;;;3.00;2.27;;;;;;;9.91;70.32;96337.91;5069611;28;20260;-57
2022/11/20 11:50:22;;;;;;;2.67;1.67;;;;;;;9.83;73.45;96331.69;5076667;28;20710;-57
2022/11/20 11:52:55;;;;;;;1.20;1.10;;;;;;;9.77;71.93;96327.84;5077196;28;20290;-57